Time,TemperatureF,DewpointF,PressureIn,WindDirection,WindDirectionDegrees,WindSpeedMPH,WindSpeedGustMPH,Humidity,HourlyPrecipIn,Conditions,Clouds,dailyrainin,SoftwareType,DateUTC
2013-11-01 00:00:00,59.2,58.1,29.76,SSE,161,2.0,2.0,96,0.00,,,0.10,Wunderground v.1.15,2013-11-01 04:00:00,
2013-11-01 00:05:00,59.3,58.2,29.75,SSW,207,1.0,2.0,96,0.00,,,0.00,Wunderground v.1.15,2013-11-01 04:05:00,
2013-11-01 00:10:00,59.3,58.2,29.75,SSW,200,1.0,1.0,96,0.00,,,0.00,Wunderground v.1.15,2013-11-01 04:10:00,
2013-11-01 00:15:00,59.5,58.4,29.75,SE,145,1.0,5.0,96,0.00,,,0.01,Wunderground v.1.15,2013-11-01 04:15:00,
2013-11-01 00:20:00,59.8,58.7,29.75,SSW,205,2.0,2.0,96,0.00,,,0.01,Wunderground v.1.15,2013-11-01 04:20:00,
2013-11-01 00:30:00,60.4,59.5,29.75,SSE,148,1.0,1.0,97,0.00,,,0.01,Wunderground v.1.15,2013-11-01 04:30:00,
2013-11-01 00:35:00,60.7,59.8,29.74,WSW,242,1.0,3.0,97,0.00,,,0.02,Wunderground v.1.15,2013-11-01 04:35:00,
2013-11-01 00:45:00,60.9,59.5,29.74,WSW,240,2.0,3.0,95,0.00,,,0.02,Wunderground v.1.15,2013-11-01 04:45:00,
2013-11-01 00:55:00,60.9,59.2,29.73,SW,217,3.0,4.0,94,0.00,,,0.02,Wunderground v.1.15,2013-11-01 04:55:00,
2013-11-01 01:05:00,60.9,58.9,29.72,SSE,161,2.0,6.0,93,0.00,,,0.02,Wunderground v.1.15,2013-11-01 05:05:00,
2013-11-01 01:14:00,60.9,58.6,29.72,SSE,164,2.0,2.0,92,0.00,,,0.03,Wunderground v.1.15,2013-11-01 05:14:00,
2013-11-01 01:19:00,60.9,58.6,29.72,ESE,117,1.0,1.0,92,0.00,,,0.03,Wunderground v.1.15,2013-11-01 05:19:00,
2013-11-01 01:24:00,60.7,58.4,29.72,SSW,201,1.0,2.0,92,0.00,,,0.03,Wunderground v.1.15,2013-11-01 05:24:00,
2013-11-01 01:29:00,60.7,58.1,29.72,South,189,2.0,2.0,91,0.00,,,0.03,Wunderground v.1.15,2013-11-01 05:29:00,
2013-11-01 01:34:00,60.7,58.1,29.70,SSE,159,2.0,2.0,91,0.00,,,0.03,Wunderground v.1.15,2013-11-01 05:34:00,
2013-11-01 01:40:00,60.7,58.1,29.70,SSW,207,2.0,4.0,91,0.00,,,0.03,Wunderground v.1.15,2013-11-01 05:40:00,
2013-11-01 01:50:00,60.4,57.8,29.69,SSE,157,1.0,1.0,91,0.00,,,0.03,Wunderground v.1.15,2013-11-01 05:50:00,
2013-11-01 02:00:00,60.1,57.8,29.69,South,174,0.0,0.0,92,0.00,,,0.04,Wunderground v.1.15,2013-11-01 06:00:00,
2013-11-01 02:05:00,59.9,57.9,29.69,SSW,213,0.0,0.0,93,0.00,,,0.04,Wunderground v.1.15,2013-11-01 06:05:00,
2013-11-01 02:10:00,59.8,57.8,29.69,South,183,0.0,2.0,93,0.00,,,0.04,Wunderground v.1.15,2013-11-01 06:10:00,
2013-11-01 02:15:00,59.8,57.8,29.69,South,186,1.0,2.0,93,0.00,,,0.04,Wunderground v.1.15,2013-11-01 06:15:00,
2013-11-01 02:25:00,60.2,58.5,29.69,SW,215,1.0,1.0,94,0.00,,,0.04,Wunderground v.1.15,2013-11-01 06:25:00,
2013-11-01 02:30:00,60.5,58.8,29.69,SSW,203,2.0,2.0,94,0.00,,,0.04,Wunderground v.1.15,2013-11-01 06:30:00,
2013-11-01 02:40:00,60.9,59.2,29.67,SSE,147,2.0,2.0,94,0.00,,,0.04,Wunderground v.1.15,2013-11-01 06:40:00,
2013-11-01 02:45:00,61.0,59.3,29.67,SSE,153,3.0,6.0,94,0.00,,,0.04,Wunderground v.1.15,2013-11-01 06:45:00,
2013-11-01 02:50:00,61.3,59.6,29.67,SW,215,2.0,2.0,94,0.00,,,0.04,Wunderground v.1.15,2013-11-01 06:50:00,
2013-11-01 03:00:00,61.5,59.8,29.67,SSW,196,3.0,9.0,94,0.00,,,0.04,Wunderground v.1.15,2013-11-01 07:00:00,
2013-11-01 03:05:00,61.8,60.1,29.66,SSW,213,3.0,9.0,94,0.00,,,0.04,Wunderground v.1.15,2013-11-01 07:05:00,
2013-11-01 03:10:00,61.8,60.1,29.66,South,185,3.0,3.0,94,0.00,,,0.04,Wunderground v.1.15,2013-11-01 07:10:00,
2013-11-01 03:15:00,61.8,59.8,29.66,South,191,2.0,3.0,93,0.00,,,0.04,Wunderground v.1.15,2013-11-01 07:15:00,
2013-11-01 03:20:00,62.0,60.0,29.64,SSW,202,2.0,2.0,93,0.00,,,0.04,Wunderground v.1.15,2013-11-01 07:20:00,
2013-11-01 03:25:00,62.0,60.0,29.64,South,174,2.0,2.0,93,0.00,,,0.04,Wunderground v.1.15,2013-11-01 07:25:00,
2013-11-01 03:35:00,62.3,60.2,29.64,South,182,2.0,4.0,93,0.00,,,0.04,Wunderground v.1.15,2013-11-01 07:35:00,
2013-11-01 03:40:00,62.4,60.3,29.64,SSW,208,2.0,2.0,93,0.00,,,0.04,Wunderground v.1.15,2013-11-01 07:40:00,
2013-11-01 03:49:00,62.6,60.2,29.63,South,180,2.0,3.0,92,0.00,,,0.04,Wunderground v.1.15,2013-11-01 07:49:00,
2013-11-01 03:55:00,62.7,60.3,29.63,South,172,2.0,3.0,92,0.00,,,0.04,Wunderground v.1.15,2013-11-01 07:55:00,
2013-11-01 04:00:00,62.7,60.0,29.63,SSW,197,2.0,2.0,91,0.00,,,0.04,Wunderground v.1.15,2013-11-01 08:00:00,
2013-11-01 04:05:00,62.9,60.2,29.62,SSE,168,2.0,2.0,91,0.00,,,0.04,Wunderground v.1.15,2013-11-01 08:05:00,
2013-11-01 04:10:00,63.1,60.4,29.62,SW,217,2.0,3.0,91,0.00,,,0.04,Wunderground v.1.15,2013-11-01 08:10:00,
2013-11-01 04:15:00,63.2,60.2,29.62,South,171,3.0,3.0,90,0.00,,,0.04,Wunderground v.1.15,2013-11-01 08:15:00,
2013-11-01 04:25:00,63.2,59.9,29.61,South,180,2.0,3.0,89,0.00,,,0.04,Wunderground v.1.15,2013-11-01 08:25:00,
2013-11-01 04:30:00,63.2,59.9,29.61,SSE,147,2.0,2.0,89,0.00,,,0.04,Wunderground v.1.15,2013-11-01 08:30:00,
2013-11-01 04:35:00,63.2,59.9,29.60,SSW,200,3.0,7.0,89,0.00,,,0.04,Wunderground v.1.15,2013-11-01 08:35:00,
2013-11-01 04:40:00,63.2,59.9,29.60,SSW,207,3.0,4.0,89,0.00,,,0.04,Wunderground v.1.15,2013-11-01 08:40:00,
2013-11-01 04:45:00,63.2,59.9,29.60,South,169,2.0,4.0,89,0.00,,,0.04,Wunderground v.1.15,2013-11-01 08:45:00,
2013-11-01 04:50:00,63.1,60.1,29.59,South,178,2.0,5.0,90,0.00,,,0.04,Wunderground v.1.15,2013-11-01 08:50:00,
2013-11-01 04:55:00,63.1,60.1,29.59,SSE,168,2.0,5.0,90,0.00,,,0.04,Wunderground v.1.15,2013-11-01 08:55:00,
2013-11-01 05:00:00,62.9,59.9,29.59,South,185,2.0,2.0,90,0.00,,,0.04,Wunderground v.1.15,2013-11-01 09:00:00,
2013-11-01 05:10:00,62.9,59.9,29.58,South,171,2.0,3.0,90,0.00,,,0.04,Wunderground v.1.15,2013-11-01 09:10:00,
2013-11-01 05:15:00,63.1,60.1,29.58,SW,214,2.0,3.0,90,0.00,,,0.04,Wunderground v.1.15,2013-11-01 09:15:00,
2013-11-01 05:20:00,63.2,60.2,29.58,SW,219,3.0,3.0,90,0.00,,,0.04,Wunderground v.1.15,2013-11-01 09:20:00,
2013-11-01 05:25:00,63.2,60.2,29.58,South,175,3.0,3.0,90,0.00,,,0.04,Wunderground v.1.15,2013-11-01 09:25:00,
2013-11-01 05:30:00,63.2,60.2,29.58,SSW,196,2.0,3.0,90,0.00,,,0.04,Wunderground v.1.15,2013-11-01 09:30:00,
2013-11-01 05:40:00,63.4,60.1,29.58,SSE,168,3.0,3.0,89,0.00,,,0.04,Wunderground v.1.15,2013-11-01 09:40:00,
2013-11-01 05:45:00,63.4,60.1,29.58,SSW,192,3.0,3.0,89,0.00,,,0.04,Wunderground v.1.15,2013-11-01 09:45:00,
2013-11-01 05:55:00,63.5,59.9,29.57,SSW,201,3.0,3.0,88,0.00,,,0.04,Wunderground v.1.15,2013-11-01 09:55:00,
2013-11-01 06:00:00,63.5,59.9,29.57,SSE,167,3.0,3.0,88,0.00,,,0.04,Wunderground v.1.15,2013-11-01 10:00:00,
2013-11-01 06:05:00,63.5,59.9,29.56,SSW,211,2.0,5.0,88,0.00,,,0.04,Wunderground v.1.15,2013-11-01 10:05:00,
2013-11-01 06:15:00,63.7,59.8,29.56,South,175,4.0,4.0,87,0.00,,,0.04,Wunderground v.1.15,2013-11-01 10:15:00,
2013-11-01 06:20:00,63.9,60.0,29.55,SSW,202,4.0,4.0,87,0.00,,,0.04,Wunderground v.1.15,2013-11-01 10:20:00,
2013-11-01 06:25:00,64.0,60.1,29.55,SSW,211,4.0,4.0,87,0.00,,,0.04,Wunderground v.1.15,2013-11-01 10:25:00,
2013-11-01 06:30:00,64.0,60.1,29.55,South,190,4.0,4.0,87,0.00,,,0.04,Wunderground v.1.15,2013-11-01 10:30:00,
2013-11-01 06:40:00,64.5,60.2,29.53,SSE,159,5.0,5.0,86,0.00,,,0.04,Wunderground v.1.15,2013-11-01 10:40:00,
2013-11-01 06:45:00,64.5,60.2,29.53,South,182,4.0,8.0,86,0.00,,,0.04,Wunderground v.1.15,2013-11-01 10:45:00,
2013-11-01 06:50:00,64.8,60.2,29.53,SW,217,4.0,4.0,85,0.00,,,0.04,Wunderground v.1.15,2013-11-01 10:50:00,
2013-11-01 07:00:00,65.2,60.2,29.53,SW,227,5.0,5.0,84,0.00,,,0.04,Wunderground v.1.15,2013-11-01 11:00:00,
2013-11-01 07:10:00,65.5,60.5,29.52,SW,215,5.0,12.0,84,0.00,,,0.04,Wunderground v.1.15,2013-11-01 11:10:00,
2013-11-01 07:20:00,65.6,60.6,29.53,SW,218,4.0,7.0,84,0.00,,,0.04,Wunderground v.1.15,2013-11-01 11:20:00,
2013-11-01 07:25:00,66.0,61.0,29.53,SSE,160,5.0,7.0,84,0.00,,,0.04,Wunderground v.1.15,2013-11-01 11:25:00,
2013-11-01 07:30:00,66.1,60.8,29.53,SW,219,6.0,6.0,83,0.00,,,0.04,Wunderground v.1.15,2013-11-01 11:30:00,
2013-11-01 07:35:00,66.3,61.0,29.53,South,184,6.0,6.0,83,0.00,,,0.04,Wunderground v.1.15,2013-11-01 11:35:00,
2013-11-01 07:45:00,66.4,60.7,29.53,South,176,5.0,5.0,82,0.00,,,0.04,Wunderground v.1.15,2013-11-01 11:45:00,
2013-11-01 07:50:00,66.6,61.3,29.53,WSW,248,5.0,5.0,83,0.00,,,0.04,Wunderground v.1.15,2013-11-01 11:50:00,
2013-11-01 08:00:00,66.8,61.5,29.53,SSE,168,5.0,11.0,83,0.00,,,0.04,Wunderground v.1.15,2013-11-01 12:00:00,
2013-11-01 08:05:00,66.8,61.5,29.52,SE,144,6.0,11.0,83,0.00,,,0.04,Wunderground v.1.15,2013-11-01 12:05:00,
2013-11-01 08:15:00,66.6,61.6,29.52,SSW,209,7.0,13.0,84,0.00,,,0.05,Wunderground v.1.15,2013-11-01 12:15:00,
2013-11-01 08:20:00,66.3,62.0,29.52,SSW,200,6.0,6.0,86,0.00,,,0.05,Wunderground v.1.15,2013-11-01 12:20:00,
2013-11-01 08:25:00,66.0,62.0,29.52,SSE,148,4.0,10.0,87,0.00,,,0.05,Wunderground v.1.15,2013-11-01 12:25:00,
2013-11-01 08:30:00,66.0,62.0,29.52,SSW,204,5.0,5.0,87,0.04,,,0.06,Wunderground v.1.15,2013-11-01 12:30:00,
2013-11-01 08:35:00,66.1,61.8,29.50,SW,219,6.0,6.0,86,0.04,,,0.06,Wunderground v.1.15,2013-11-01 12:35:00,
2013-11-01 08:40:00,66.0,61.7,29.50,SSW,194,7.0,7.0,86,0.04,,,0.06,Wunderground v.1.15,2013-11-01 12:40:00,
2013-11-01 08:50:00,65.5,61.9,29.50,WSW,254,5.0,5.0,88,0.00,,,0.07,Wunderground v.1.15,2013-11-01 12:50:00,
2013-11-01 08:59:00,65.2,61.9,29.50,SW,227,6.0,6.0,89,0.00,,,0.07,Wunderground v.1.15,2013-11-01 12:59:00,
2013-11-01 09:05:00,65.2,61.9,29.51,South,180,6.0,6.0,89,0.00,,,0.07,Wunderground v.1.15,2013-11-01 13:05:00,
2013-11-01 09:15:00,65.0,62.0,29.51,SW,220,5.0,9.0,90,0.00,,,0.07,Wunderground v.1.15,2013-11-01 13:15:00,
2013-11-01 09:20:00,64.8,61.8,29.50,SSW,201,5.0,6.0,90,0.00,,,0.08,Wunderground v.1.15,2013-11-01 13:20:00,
2013-11-01 09:30:00,64.8,62.1,29.50,WSW,240,5.0,9.0,91,0.08,,,0.09,Wunderground v.1.15,2013-11-01 13:30:00,
2013-11-01 09:40:00,64.8,62.1,29.49,SSW,198,5.0,5.0,91,0.05,,,0.09,Wunderground v.1.15,2013-11-01 13:40:00,
2013-11-01 09:45:00,64.8,62.1,29.49,South,183,5.0,5.0,91,0.00,,,0.09,Wunderground v.1.15,2013-11-01 13:45:00,
2013-11-01 09:50:00,65.0,62.3,29.49,SE,130,4.0,4.0,91,0.00,,,0.09,Wunderground v.1.15,2013-11-01 13:50:00,
2013-11-01 09:55:00,65.0,62.3,29.49,SSW,194,4.0,4.0,91,0.00,,,0.09,Wunderground v.1.15,2013-11-01 13:55:00,
2013-11-01 10:00:00,64.8,62.1,29.49,SW,223,4.0,4.0,91,0.00,,,0.09,Wunderground v.1.15,2013-11-01 14:00:00,
2013-11-01 10:05:00,64.8,62.1,29.48,South,186,5.0,5.0,91,0.00,,,0.09,Wunderground v.1.15,2013-11-01 14:05:00,
2013-11-01 10:10:00,64.7,62.0,29.48,South,185,5.0,6.0,91,0.00,,,0.10,Wunderground v.1.15,2013-11-01 14:10:00,
2013-11-01 10:20:00,64.5,62.1,29.47,South,170,4.0,14.0,92,0.00,,,0.10,Wunderground v.1.15,2013-11-01 14:20:00,
2013-11-01 10:25:00,64.7,62.0,29.47,SW,224,5.0,14.0,91,0.00,,,0.10,Wunderground v.1.15,2013-11-01 14:25:00,
2013-11-01 10:35:00,65.2,61.9,29.47,SE,140,6.0,21.0,89,0.00,,,0.10,Wunderground v.1.15,2013-11-01 14:35:00,
2013-11-01 10:40:00,65.3,62.3,29.47,South,180,7.0,9.0,90,0.00,,,0.10,Wunderground v.1.15,2013-11-01 14:40:00,
2013-11-01 10:45:00,65.3,62.3,29.47,NE,37,6.0,9.0,90,0.00,,,0.10,Wunderground v.1.15,2013-11-01 14:45:00,
2013-11-01 10:55:00,62.6,59.0,29.53,WNW,286,4.0,5.0,88,0.20,,,0.20,Wunderground v.1.15,2013-11-01 14:55:00,
2013-11-01 11:05:00,61.0,58.0,29.53,WNW,288,3.0,3.0,90,0.07,,,0.21,Wunderground v.1.15,2013-11-01 15:05:00,
2013-11-01 11:10:00,60.7,57.7,29.53,WSW,254,2.0,2.0,90,0.04,,,0.21,Wunderground v.1.15,2013-11-01 15:10:00,
2013-11-01 11:15:00,60.5,57.9,29.53,SW,232,1.0,2.0,91,0.00,,,0.21,Wunderground v.1.15,2013-11-01 15:15:00,
2013-11-01 11:20:00,60.4,57.8,29.53,WSW,242,1.0,1.0,91,0.00,,,0.21,Wunderground v.1.15,2013-11-01 15:20:00,
2013-11-01 11:30:00,60.5,57.6,29.53,SSW,209,1.0,3.0,90,0.00,,,0.21,Wunderground v.1.15,2013-11-01 15:30:00,
2013-11-01 11:40:00,60.5,57.2,29.52,SW,234,1.0,3.0,89,0.00,,,0.21,Wunderground v.1.15,2013-11-01 15:40:00,
2013-11-01 11:45:00,60.7,57.4,29.52,SSW,192,1.0,3.0,89,0.00,,,0.21,Wunderground v.1.15,2013-11-01 15:45:00,
2013-11-01 11:55:00,61.2,57.0,29.51,SW,217,1.0,1.0,86,0.00,,,0.21,Wunderground v.1.15,2013-11-01 15:55:00,
2013-11-01 12:00:00,61.3,56.8,29.51,SSW,200,1.0,1.0,85,0.00,,,0.21,Wunderground v.1.15,2013-11-01 16:00:00,
2013-11-01 12:05:00,61.5,56.9,29.51,SSW,193,1.0,1.0,85,0.00,,,0.21,Wunderground v.1.15,2013-11-01 16:05:00,
2013-11-01 12:15:00,61.8,56.9,29.51,South,178,1.0,1.0,84,0.00,,,0.21,Wunderground v.1.15,2013-11-01 16:15:00,
2013-11-01 12:25:00,62.0,57.1,29.51,SW,217,1.0,1.0,84,0.00,,,0.21,Wunderground v.1.15,2013-11-01 16:25:00,
2013-11-01 12:30:00,62.0,57.1,29.51,SW,229,1.0,1.0,84,0.00,,,0.21,Wunderground v.1.15,2013-11-01 16:30:00,
2013-11-01 12:40:00,62.4,57.5,29.48,SE,141,3.0,4.0,84,0.00,,,0.21,Wunderground v.1.15,2013-11-01 16:40:00,
2013-11-01 12:45:00,62.7,57.8,29.48,South,190,3.0,4.0,84,0.00,,,0.21,Wunderground v.1.15,2013-11-01 16:45:00,
2013-11-01 12:50:00,62.9,57.7,29.47,South,184,2.0,2.0,83,0.00,,,0.21,Wunderground v.1.15,2013-11-01 16:50:00,
2013-11-01 12:55:00,63.1,57.9,29.47,SSW,194,1.0,4.0,83,0.00,,,0.21,Wunderground v.1.15,2013-11-01 16:55:00,
2013-11-01 13:05:00,63.4,57.5,29.47,SSW,204,3.0,5.0,81,0.00,,,0.21,Wunderground v.1.15,2013-11-01 17:05:00,
2013-11-01 13:10:00,63.4,57.5,29.47,SW,225,3.0,3.0,81,0.00,,,0.21,Wunderground v.1.15,2013-11-01 17:10:00,
2013-11-01 13:20:00,63.5,57.2,29.48,West,265,2.0,4.0,80,0.00,,,0.21,Wunderground v.1.15,2013-11-01 17:20:00,
2013-11-01 13:30:00,63.9,57.3,29.48,SSW,211,3.0,3.0,79,0.00,,,0.21,Wunderground v.1.15,2013-11-01 17:30:00,
2013-11-01 13:35:00,63.9,57.3,29.47,SW,223,3.0,3.0,79,0.00,,,0.21,Wunderground v.1.15,2013-11-01 17:35:00,
2013-11-01 13:40:00,64.0,57.0,29.47,NW,306,3.0,5.0,78,0.00,,,0.21,Wunderground v.1.15,2013-11-01 17:40:00,
2013-11-01 13:45:00,64.2,57.2,29.47,South,184,3.0,5.0,78,0.00,,,0.21,Wunderground v.1.15,2013-11-01 17:45:00,
2013-11-01 13:55:00,64.3,56.6,29.45,SSW,196,3.0,3.0,76,0.00,,,0.21,Wunderground v.1.15,2013-11-01 17:55:00,
2013-11-01 14:00:00,64.5,56.8,29.45,SW,221,3.0,5.0,76,0.00,,,0.21,Wunderground v.1.15,2013-11-01 18:00:00,
2013-11-01 14:05:00,64.7,56.6,29.47,South,178,4.0,8.0,75,0.00,,,0.21,Wunderground v.1.15,2013-11-01 18:05:00,
2013-11-01 14:10:00,64.7,55.8,29.47,SW,217,4.0,4.0,73,0.00,,,0.21,Wunderground v.1.15,2013-11-01 18:10:00,
2013-11-01 14:20:00,65.0,55.8,29.46,SSW,194,3.0,3.0,72,0.00,,,0.21,Wunderground v.1.15,2013-11-01 18:20:00,
2013-11-01 14:25:00,65.0,55.8,29.46,SSW,205,3.0,3.0,72,0.00,,,0.21,Wunderground v.1.15,2013-11-01 18:25:00,
2013-11-01 14:35:00,65.6,55.5,29.46,WSW,250,3.0,4.0,70,0.00,,,0.21,Wunderground v.1.15,2013-11-01 18:35:00,
2013-11-01 14:45:00,65.8,55.3,29.46,SW,235,2.0,5.0,69,0.00,,,0.21,Wunderground v.1.15,2013-11-01 18:45:00,
2013-11-01 14:50:00,65.8,55.3,29.45,West,266,2.0,2.0,69,0.00,,,0.21,Wunderground v.1.15,2013-11-01 18:50:00,
2013-11-01 14:55:00,66.0,55.1,29.45,South,188,1.0,2.0,68,0.00,,,0.21,Wunderground v.1.15,2013-11-01 18:55:00,
2013-11-01 15:00:00,66.1,55.2,29.45,WNW,282,1.0,1.0,68,0.00,,,0.21,Wunderground v.1.15,2013-11-01 19:00:00,
2013-11-01 15:05:00,66.4,55.1,29.46,SSW,200,1.0,4.0,67,0.00,,,0.21,Wunderground v.1.15,2013-11-01 19:05:00,
2013-11-01 15:10:00,66.6,54.5,29.46,WSW,256,2.0,4.0,65,0.00,,,0.21,Wunderground v.1.15,2013-11-01 19:10:00,
2013-11-01 15:15:00,66.4,54.7,29.46,WSW,244,3.0,4.0,66,0.00,,,0.21,Wunderground v.1.15,2013-11-01 19:15:00,
2013-11-01 15:20:00,66.4,54.7,29.45,SE,126,3.0,3.0,66,0.00,,,0.21,Wunderground v.1.15,2013-11-01 19:20:00,
2013-11-01 15:25:00,66.6,54.5,29.45,SSW,200,2.0,3.0,65,0.00,,,0.21,Wunderground v.1.15,2013-11-01 19:25:00,
2013-11-01 15:30:00,66.8,55.1,29.45,SSW,194,2.0,2.0,66,0.00,,,0.21,Wunderground v.1.15,2013-11-01 19:30:00,
2013-11-01 15:40:00,67.1,54.5,29.46,SSE,165,2.0,2.0,64,0.00,,,0.21,Wunderground v.1.15,2013-11-01 19:40:00,
2013-11-01 15:50:00,67.6,54.1,29.47,SW,234,2.0,3.0,62,0.00,,,0.21,Wunderground v.1.15,2013-11-01 19:50:00,
2013-11-01 16:00:00,67.4,54.4,29.47,SSW,198,2.0,2.0,63,0.00,,,0.21,Wunderground v.1.15,2013-11-01 20:00:00,
2013-11-01 16:05:00,67.3,54.7,29.47,WNW,290,2.0,2.0,64,0.00,,,0.21,Wunderground v.1.15,2013-11-01 20:05:00,
2013-11-01 16:14:00,67.1,54.1,29.47,West,260,1.0,3.0,63,0.00,,,0.21,Wunderground v.1.15,2013-11-01 20:14:00,
2013-11-01 16:19:00,66.9,53.9,29.47,SSW,209,1.0,1.0,63,0.00,,,0.21,Wunderground v.1.15,2013-11-01 20:19:00,
2013-11-01 16:25:00,66.8,54.2,29.47,SSW,194,1.0,7.0,64,0.00,,,0.21,Wunderground v.1.15,2013-11-01 20:25:00,
2013-11-01 16:30:00,66.8,53.8,29.47,South,182,1.0,1.0,63,0.00,,,0.21,Wunderground v.1.15,2013-11-01 20:30:00,
2013-11-01 16:40:00,66.8,53.8,29.47,SSW,205,1.0,1.0,63,0.00,,,0.21,Wunderground v.1.15,2013-11-01 20:40:00,
2013-11-01 16:45:00,66.6,54.0,29.47,SSW,198,0.0,1.0,64,0.00,,,0.21,Wunderground v.1.15,2013-11-01 20:45:00,
2013-11-01 16:54:00,66.3,53.8,29.47,South,185,0.0,2.0,64,0.00,,,0.21,Wunderground v.1.15,2013-11-01 20:54:00,
2013-11-01 17:00:00,66.3,53.8,29.47,SW,232,0.0,0.0,64,0.00,,,0.21,Wunderground v.1.15,2013-11-01 21:00:00,
2013-11-01 17:05:00,66.1,53.6,29.48,SW,225,0.0,1.0,64,0.00,,,0.21,Wunderground v.1.15,2013-11-01 21:05:00,
2013-11-01 17:15:00,66.1,53.6,29.48,WNW,283,0.0,1.0,64,0.00,,,0.21,Wunderground v.1.15,2013-11-01 21:15:00,
2013-11-01 17:20:00,66.0,53.5,29.48,SSW,196,0.0,2.0,64,0.00,,,0.21,Wunderground v.1.15,2013-11-01 21:20:00,
2013-11-01 17:25:00,66.0,53.5,29.48,SSW,196,0.0,2.0,64,0.00,,,0.21,Wunderground v.1.15,2013-11-01 21:25:00,
2013-11-01 17:35:00,66.0,53.5,29.48,SSE,167,1.0,1.0,64,0.00,,,0.21,Wunderground v.1.15,2013-11-01 21:35:00,
2013-11-01 17:40:00,66.0,53.5,29.48,SSE,167,0.0,0.0,64,0.00,,,0.21,Wunderground v.1.15,2013-11-01 21:40:00,
2013-11-01 17:49:00,65.5,53.4,29.48,South,178,0.0,0.0,65,0.00,,,0.21,Wunderground v.1.15,2013-11-01 21:49:00,
2013-11-01 17:55:00,65.2,53.6,29.48,South,178,0.0,0.0,66,0.00,,,0.21,Wunderground v.1.15,2013-11-01 21:55:00,
2013-11-01 18:05:00,64.2,53.4,29.50,South,178,0.0,0.0,68,0.00,,,0.21,Wunderground v.1.15,2013-11-01 22:05:00,
2013-11-01 18:10:00,63.7,53.7,29.50,SSW,202,0.0,1.0,70,0.00,,,0.21,Wunderground v.1.15,2013-11-01 22:10:00,
2013-11-01 18:15:00,63.1,53.9,29.50,SSW,202,0.0,1.0,72,0.00,,,0.21,Wunderground v.1.15,2013-11-01 22:15:00,
2013-11-01 18:20:00,62.7,54.3,29.50,SSW,192,0.0,0.0,74,0.00,,,0.21,Wunderground v.1.15,2013-11-01 22:20:00,
2013-11-01 18:25:00,62.4,54.4,29.50,SSW,195,0.0,1.0,75,0.00,,,0.21,Wunderground v.1.15,2013-11-01 22:25:00,
2013-11-01 18:35:00,62.0,54.3,29.51,SSW,194,0.0,0.0,76,0.00,,,0.21,Wunderground v.1.15,2013-11-01 22:35:00,
2013-11-01 18:45:00,61.6,54.7,29.51,South,181,0.0,2.0,78,0.00,,,0.21,Wunderground v.1.15,2013-11-01 22:45:00,
2013-11-01 18:50:00,61.8,54.5,29.52,South,189,1.0,1.0,77,0.00,,,0.21,Wunderground v.1.15,2013-11-01 22:50:00,
2013-11-01 18:55:00,61.8,54.5,29.52,South,184,1.0,1.0,77,0.00,,,0.21,Wunderground v.1.15,2013-11-01 22:55:00,
2013-11-01 19:00:00,62.0,54.7,29.52,SW,222,1.0,1.0,77,0.00,,,0.21,Wunderground v.1.15,2013-11-01 23:00:00,
2013-11-01 19:05:00,61.8,54.5,29.53,South,189,0.0,1.0,77,0.00,,,0.21,Wunderground v.1.15,2013-11-01 23:05:00,
2013-11-01 19:15:00,61.5,54.6,29.53,South,186,0.0,0.0,78,0.00,,,0.21,Wunderground v.1.15,2013-11-01 23:15:00,
2013-11-01 19:25:00,61.2,54.3,29.54,SSW,196,0.0,0.0,78,0.00,,,0.21,Wunderground v.1.15,2013-11-01 23:25:00,
2013-11-01 19:30:00,61.0,54.1,29.54,SSW,196,0.0,0.0,78,0.00,,,0.21,Wunderground v.1.15,2013-11-01 23:30:00,
2013-11-01 19:40:00,60.9,54.0,29.55,SSW,196,0.0,0.0,78,0.00,,,0.21,Wunderground v.1.15,2013-11-01 23:40:00,
2013-11-01 19:45:00,60.7,53.8,29.55,SSW,196,0.0,0.0,78,0.00,,,0.21,Wunderground v.1.15,2013-11-01 23:45:00,
2013-11-01 19:55:00,60.4,53.5,29.55,SSW,196,0.0,0.0,78,0.00,,,0.21,Wunderground v.1.15,2013-11-01 23:55:00,
2013-11-01 20:00:00,60.2,53.3,29.55,SSW,196,0.0,0.0,78,0.00,,,0.21,Wunderground v.1.15,2013-11-02 00:00:00,
2013-11-01 20:05:00,60.1,53.6,29.55,SSW,196,0.0,0.0,79,0.00,,,0.21,Wunderground v.1.15,2013-11-02 00:05:00,
2013-11-01 20:10:00,60.1,53.2,29.55,SSW,196,0.0,0.0,78,0.00,,,0.21,Wunderground v.1.15,2013-11-02 00:10:00,
2013-11-01 20:20:00,59.9,53.0,29.56,SSW,196,0.0,1.0,78,0.00,,,0.21,Wunderground v.1.15,2013-11-02 00:20:00,
2013-11-01 20:25:00,60.1,53.2,29.56,South,188,1.0,1.0,78,0.00,,,0.21,Wunderground v.1.15,2013-11-02 00:25:00,
2013-11-01 20:30:00,60.2,53.3,29.56,South,184,1.0,5.0,78,0.00,,,0.21,Wunderground v.1.15,2013-11-02 00:30:00,
2013-11-01 20:40:00,60.5,53.6,29.57,South,176,1.0,1.0,78,0.00,,,0.21,Wunderground v.1.15,2013-11-02 00:40:00,
2013-11-01 20:50:00,60.4,53.5,29.57,South,180,0.0,0.0,78,0.00,,,0.21,Wunderground v.1.15,2013-11-02 00:50:00,
2013-11-01 20:59:00,60.4,53.5,29.57,South,171,0.0,1.0,78,0.00,,,0.21,Wunderground v.1.15,2013-11-02 00:59:00,
2013-11-01 21:05:00,60.4,53.5,29.58,South,174,0.0,1.0,78,0.00,,,0.21,Wunderground v.1.15,2013-11-02 01:05:00,
2013-11-01 21:10:00,60.2,53.3,29.58,South,178,0.0,0.0,78,0.00,,,0.21,Wunderground v.1.15,2013-11-02 01:10:00,
2013-11-01 21:15:00,60.1,53.2,29.58,South,178,0.0,0.0,78,0.00,,,0.21,Wunderground v.1.15,2013-11-02 01:15:00,
2013-11-01 21:25:00,59.9,53.4,29.59,South,182,0.0,0.0,79,0.00,,,0.21,Wunderground v.1.15,2013-11-02 01:25:00,
2013-11-01 21:30:00,59.9,53.0,29.59,South,183,0.0,0.0,78,0.00,,,0.21,Wunderground v.1.15,2013-11-02 01:30:00,
2013-11-01 21:40:00,60.1,53.2,29.59,SW,223,0.0,0.0,78,0.00,,,0.21,Wunderground v.1.15,2013-11-02 01:40:00,
2013-11-01 21:50:00,60.1,53.2,29.59,SSW,210,0.0,0.0,78,0.00,,,0.21,Wunderground v.1.15,2013-11-02 01:50:00,
2013-11-01 22:00:00,59.0,52.8,29.59,South,183,0.0,0.0,80,0.00,,,0.21,Wunderground v.1.15,2013-11-02 02:00:00,
2013-11-01 22:05:00,58.6,53.1,29.59,South,191,0.0,0.0,82,0.00,,,0.21,Wunderground v.1.15,2013-11-02 02:05:00,
2013-11-01 22:10:00,58.3,53.5,29.59,South,191,0.0,0.0,84,0.00,,,0.21,Wunderground v.1.15,2013-11-02 02:10:00,
2013-11-01 22:15:00,58.0,53.5,29.59,South,191,0.0,0.0,85,0.00,,,0.21,Wunderground v.1.15,2013-11-02 02:15:00,
2013-11-01 22:20:00,57.6,53.4,29.61,South,191,0.0,0.0,86,0.00,,,0.21,Wunderground v.1.15,2013-11-02 02:20:00,
2013-11-01 22:25:00,57.5,53.3,29.61,South,191,0.0,0.0,86,0.00,,,0.21,Wunderground v.1.15,2013-11-02 02:25:00,
2013-11-01 22:34:00,57.3,53.5,29.62,SW,215,0.0,0.0,87,0.00,,,0.21,Wunderground v.1.15,2013-11-02 02:34:00,
2013-11-01 22:39:00,57.5,53.7,29.62,South,180,0.0,0.0,87,0.00,,,0.21,Wunderground v.1.15,2013-11-02 02:39:00,
2013-11-01 22:45:00,57.3,53.5,29.62,South,180,0.0,0.0,87,0.00,,,0.21,Wunderground v.1.15,2013-11-02 02:45:00,
2013-11-01 22:50:00,57.2,53.4,29.62,South,180,0.0,0.0,87,0.00,,,0.21,Wunderground v.1.15,2013-11-02 02:50:00,
2013-11-01 22:55:00,56.9,53.4,29.62,South,180,0.0,0.0,88,0.00,,,0.21,Wunderground v.1.15,2013-11-02 02:55:00,
2013-11-01 23:00:00,56.7,53.2,29.62,South,180,0.0,0.0,88,0.00,,,0.21,Wunderground v.1.15,2013-11-02 03:00:00,
2013-11-01 23:10:00,56.5,53.3,29.61,South,180,0.0,0.0,89,0.00,,,0.21,Wunderground v.1.15,2013-11-02 03:10:00,
2013-11-01 23:15:00,55.9,52.7,29.61,South,180,0.0,0.0,89,0.00,,,0.21,Wunderground v.1.15,2013-11-02 03:15:00,
2013-11-01 23:25:00,55.6,52.7,29.62,South,180,0.0,0.0,90,0.00,,,0.21,Wunderground v.1.15,2013-11-02 03:25:00,
2013-11-01 23:30:00,55.6,53.0,29.62,South,180,0.0,1.0,91,0.00,,,0.21,Wunderground v.1.15,2013-11-02 03:30:00,
2013-11-01 23:40:00,55.6,53.0,29.62,South,180,0.0,0.0,91,0.00,,,0.21,Wunderground v.1.15,2013-11-02 03:40:00,
2013-11-01 23:45:00,55.4,52.8,29.62,South,180,0.0,0.0,91,0.00,,,0.21,Wunderground v.1.15,2013-11-02 03:45:00,
2013-11-01 23:54:00,54.4,51.8,29.63,North,355,0.0,3.0,91,0.00,,,0.21,Wunderground v.1.15,2013-11-02 03:54:00,
2013-11-01 23:59:00,54.2,51.6,29.63,North,355,0.0,0.0,91,0.00,,,0.21,Wunderground v.1.15,2013-11-02 03:59:00,